sensor_id;sensor_type;location;lat;lon;timestamp;P1;durP1;ratioP1;P2;durP2;ratioP2
5801;SDS011;2927;49.366;8.530;2022-07-23T00:00:06;11.23;;;7.43;;
5801;SDS011;2927;49.366;8.530;2022-07-23T00:02:33;10.73;;;7.30;;
5801;SDS011;2927;49.366;8.530;2022-07-23T00:04:58;14.20;;;7.47;;
5801;SDS011;2927;49.366;8.530;2022-07-23T00:07:24;9.13;;;7.17;;
5801;SDS011;2927;49.366;8.530;2022-07-23T00:09:50;12.20;;;7.03;;
5801;SDS011;2927;49.366;8.530;2022-07-23T00:12:15;7.17;;;6.20;;
5801;SDS011;2927;49.366;8.530;2022-07-23T00:14:41;7.63;;;6.50;;
5801;SDS011;2927;49.366;8.530;2022-07-23T00:17:06;10.47;;;7.33;;
5801;SDS011;2927;49.366;8.530;2022-07-23T00:19:32;17.63;;;8.07;;
5801;SDS011;2927;49.366;8.530;2022-07-23T00:21:57;12.00;;;7.67;;
5801;SDS011;2927;49.366;8.530;2022-07-23T00:24:23;9.43;;;7.00;;
5801;SDS011;2927;49.366;8.530;2022-07-23T00:26:48;9.43;;;7.30;;
5801;SDS011;2927;49.366;8.530;2022-07-23T00:29:14;10.13;;;6.80;;
5801;SDS011;2927;49.366;8.530;2022-07-23T00:31:39;13.30;;;6.50;;
5801;SDS011;2927;49.366;8.530;2022-07-23T00:34:06;10.60;;;6.90;;
5801;SDS011;2927;49.366;8.530;2022-07-23T00:36:31;10.23;;;6.83;;
5801;SDS011;2927;49.366;8.530;2022-07-23T00:38:57;10.43;;;6.23;;
5801;SDS011;2927;49.366;8.530;2022-07-23T00:41:22;12.33;;;6.60;;
5801;SDS011;2927;49.366;8.530;2022-07-23T00:43:48;7.47;;;6.60;;
5801;SDS011;2927;49.366;8.530;2022-07-23T00:46:18;7.53;;;5.97;;
5801;SDS011;2927;49.366;8.530;2022-07-23T00:48:47;10.70;;;6.60;;
5801;SDS011;2927;49.366;8.530;2022-07-23T00:51:14;7.60;;;6.90;;
5801;SDS011;2927;49.366;8.530;2022-07-23T00:53:41;9.13;;;5.60;;
5801;SDS011;2927;49.366;8.530;2022-07-23T00:56:06;7.97;;;7.00;;
5801;SDS011;2927;49.366;8.530;2022-07-23T00:58:33;9.83;;;6.20;;
5801;SDS011;2927;49.366;8.530;2022-07-23T01:01:00;7.53;;;5.53;;
5801;SDS011;2927;49.366;8.530;2022-07-23T01:03:26;8.57;;;6.20;;
5801;SDS011;2927;49.366;8.530;2022-07-23T01:05:52;7.80;;;5.90;;
5801;SDS011;2927;49.366;8.530;2022-07-23T01:08:18;6.37;;;5.57;;
5801;SDS011;2927;49.366;8.530;2022-07-23T01:10:44;9.20;;;5.50;;
5801;SDS011;2927;49.366;8.530;2022-07-23T01:13:11;16.30;;;6.33;;
5801;SDS011;2927;49.366;8.530;2022-07-23T01:15:37;7.83;;;5.90;;
5801;SDS011;2927;49.366;8.530;2022-07-23T01:18:04;10.60;;;5.80;;
5801;SDS011;2927;49.366;8.530;2022-07-23T01:20:31;9.03;;;5.70;;
5801;SDS011;2927;49.366;8.530;2022-07-23T01:22:57;7.60;;;6.00;;
5801;SDS011;2927;49.366;8.530;2022-07-23T01:25:22;16.60;;;5.27;;
5801;SDS011;2927;49.366;8.530;2022-07-23T01:27:48;5.50;;;5.00;;
5801;SDS011;2927;49.366;8.530;2022-07-23T01:30:14;8.43;;;5.20;;
5801;SDS011;2927;49.366;8.530;2022-07-23T01:32:40;8.17;;;6.10;;
5801;SDS011;2927;49.366;8.530;2022-07-23T01:35:06;6.33;;;5.43;;
5801;SDS011;2927;49.366;8.530;2022-07-23T01:37:32;8.10;;;5.53;;
5801;SDS011;2927;49.366;8.530;2022-07-23T01:39:58;6.93;;;5.00;;
5801;SDS011;2927;49.366;8.530;2022-07-23T01:42:24;10.10;;;5.40;;
5801;SDS011;2927;49.366;8.530;2022-07-23T01:44:49;12.77;;;6.17;;
5801;SDS011;2927;49.366;8.530;2022-07-23T01:47:15;5.60;;;5.00;;
5801;SDS011;2927;49.366;8.530;2022-07-23T01:49:41;7.10;;;5.93;;
5801;SDS011;2927;49.366;8.530;2022-07-23T01:52:06;8.20;;;5.87;;
5801;SDS011;2927;49.366;8.530;2022-07-23T01:54:35;7.77;;;5.50;;
5801;SDS011;2927;49.366;8.530;2022-07-23T01:57:01;7.80;;;5.80;;
5801;SDS011;2927;49.366;8.530;2022-07-23T01:59:27;6.90;;;5.60;;
5801;SDS011;2927;49.366;8.530;2022-07-23T02:01:53;8.77;;;6.30;;
5801;SDS011;2927;49.366;8.530;2022-07-23T02:04:22;7.73;;;5.50;;
5801;SDS011;2927;49.366;8.530;2022-07-23T02:06:49;8.20;;;5.60;;
5801;SDS011;2927;49.366;8.530;2022-07-23T02:09:16;7.50;;;5.60;;
5801;SDS011;2927;49.366;8.530;2022-07-23T02:11:42;7.30;;;5.23;;
5801;SDS011;2927;49.366;8.530;2022-07-23T02:14:08;7.57;;;6.13;;
5801;SDS011;2927;49.366;8.530;2022-07-23T02:16:34;8.87;;;5.30;;
5801;SDS011;2927;49.366;8.530;2022-07-23T02:18:59;7.97;;;5.53;;
5801;SDS011;2927;49.366;8.530;2022-07-23T02:21:25;10.73;;;5.73;;
5801;SDS011;2927;49.366;8.530;2022-07-23T02:23:50;8.87;;;5.30;;
5801;SDS011;2927;49.366;8.530;2022-07-23T02:26:16;9.07;;;6.67;;
5801;SDS011;2927;49.366;8.530;2022-07-23T02:28:41;10.97;;;6.40;;
5801;SDS011;2927;49.366;8.530;2022-07-23T02:31:07;8.83;;;6.17;;
5801;SDS011;2927;49.366;8.530;2022-07-23T02:33:33;8.00;;;4.83;;
5801;SDS011;2927;49.366;8.530;2022-07-23T02:35:58;8.00;;;5.67;;
5801;SDS011;2927;49.366;8.530;2022-07-23T02:38:24;8.13;;;5.93;;
5801;SDS011;2927;49.366;8.530;2022-07-23T02:40:50;7.80;;;5.20;;
5801;SDS011;2927;49.366;8.530;2022-07-23T02:43:15;9.23;;;6.03;;
5801;SDS011;2927;49.366;8.530;2022-07-23T02:45:41;10.83;;;6.33;;
5801;SDS011;2927;49.366;8.530;2022-07-23T02:48:07;8.10;;;6.00;;
5801;SDS011;2927;49.366;8.530;2022-07-23T02:50:32;9.67;;;6.87;;
5801;SDS011;2927;49.366;8.530;2022-07-23T02:52:58;9.07;;;5.40;;
5801;SDS011;2927;49.366;8.530;2022-07-23T02:55:23;7.47;;;5.27;;
5801;SDS011;2927;49.366;8.530;2022-07-23T02:57:49;10.23;;;5.73;;
5801;SDS011;2927;49.366;8.530;2022-07-23T03:00:14;8.43;;;5.63;;
5801;SDS011;2927;49.366;8.530;2022-07-23T03:02:40;11.43;;;5.50;;
5801;SDS011;2927;49.366;8.530;2022-07-23T03:05:06;7.40;;;5.53;;
5801;SDS011;2927;49.366;8.530;2022-07-23T03:07:32;9.97;;;6.57;;
5801;SDS011;2927;49.366;8.530;2022-07-23T03:09:57;9.23;;;5.80;;
5801;SDS011;2927;49.366;8.530;2022-07-23T03:12:23;13.13;;;6.27;;
5801;SDS011;2927;49.366;8.530;2022-07-23T03:14:48;11.40;;;4.83;;
5801;SDS011;2927;49.366;8.530;2022-07-23T03:17:14;9.43;;;6.07;;
5801;SDS011;2927;49.366;8.530;2022-07-23T03:19:39;9.40;;;5.87;;
5801;SDS011;2927;49.366;8.530;2022-07-23T03:22:05;7.80;;;5.60;;
5801;SDS011;2927;49.366;8.530;2022-07-23T03:24:30;7.90;;;5.47;;
5801;SDS011;2927;49.366;8.530;2022-07-23T03:27:15;10.30;;;5.73;;
5801;SDS011;2927;49.366;8.530;2022-07-23T03:29:41;13.80;;;5.90;;
5801;SDS011;2927;49.366;8.530;2022-07-23T03:32:06;8.00;;;5.00;;
5801;SDS011;2927;49.366;8.530;2022-07-23T03:34:32;8.40;;;5.50;;
5801;SDS011;2927;49.366;8.530;2022-07-23T03:36:57;7.43;;;6.43;;
5801;SDS011;2927;49.366;8.530;2022-07-23T03:39:23;5.80;;;5.10;;
5801;SDS011;2927;49.366;8.530;2022-07-23T03:41:48;7.70;;;5.53;;
5801;SDS011;2927;49.366;8.530;2022-07-23T03:44:14;9.20;;;4.70;;
5801;SDS011;2927;49.366;8.530;2022-07-23T03:46:39;9.50;;;5.77;;
5801;SDS011;2927;49.366;8.530;2022-07-23T03:49:05;8.20;;;6.40;;
5801;SDS011;2927;49.366;8.530;2022-07-23T03:51:30;10.63;;;6.03;;
5801;SDS011;2927;49.366;8.530;2022-07-23T03:53:57;11.60;;;6.87;;
5801;SDS011;2927;49.366;8.530;2022-07-23T03:56:22;9.33;;;5.90;;
5801;SDS011;2927;49.366;8.530;2022-07-23T03:58:48;6.57;;;5.63;;
5801;SDS011;2927;49.366;8.530;2022-07-23T04:01:13;10.17;;;5.60;;
5801;SDS011;2927;49.366;8.530;2022-07-23T04:03:39;6.17;;;5.57;;
5801;SDS011;2927;49.366;8.530;2022-07-23T04:06:05;6.77;;;5.67;;
5801;SDS011;2927;49.366;8.530;2022-07-23T04:08:31;8.93;;;6.43;;
5801;SDS011;2927;49.366;8.530;2022-07-23T04:10:56;9.30;;;6.20;;
5801;SDS011;2927;49.366;8.530;2022-07-23T04:13:22;6.90;;;5.27;;
5801;SDS011;2927;49.366;8.530;2022-07-23T04:15:47;7.43;;;6.07;;
5801;SDS011;2927;49.366;8.530;2022-07-23T04:18:13;8.43;;;7.03;;
5801;SDS011;2927;49.366;8.530;2022-07-23T04:20:42;9.37;;;6.53;;
5801;SDS011;2927;49.366;8.530;2022-07-23T04:23:08;8.83;;;6.87;;
5801;SDS011;2927;49.366;8.530;2022-07-23T04:25:34;7.70;;;6.70;;
5801;SDS011;2927;49.366;8.530;2022-07-23T04:28:00;10.40;;;6.53;;
5801;SDS011;2927;49.366;8.530;2022-07-23T04:30:26;10.70;;;7.53;;
5801;SDS011;2927;49.366;8.530;2022-07-23T04:32:51;11.20;;;6.83;;
5801;SDS011;2927;49.366;8.530;2022-07-23T04:35:17;13.97;;;8.53;;
5801;SDS011;2927;49.366;8.530;2022-07-23T04:37:42;8.47;;;6.43;;
5801;SDS011;2927;49.366;8.530;2022-07-23T04:40:08;12.17;;;8.90;;
5801;SDS011;2927;49.366;8.530;2022-07-23T04:42:34;10.57;;;7.90;;
5801;SDS011;2927;49.366;8.530;2022-07-23T04:45:00;14.73;;;6.70;;
5801;SDS011;2927;49.366;8.530;2022-07-23T04:47:25;10.73;;;7.73;;
5801;SDS011;2927;49.366;8.530;2022-07-23T04:49:51;10.40;;;8.10;;
5801;SDS011;2927;49.366;8.530;2022-07-23T04:52:16;9.73;;;7.70;;
5801;SDS011;2927;49.366;8.530;2022-07-23T04:54:42;10.20;;;7.43;;
5801;SDS011;2927;49.366;8.530;2022-07-23T04:57:07;13.93;;;8.30;;
5801;SDS011;2927;49.366;8.530;2022-07-23T04:59:33;12.83;;;8.40;;
5801;SDS011;2927;49.366;8.530;2022-07-23T05:01:58;14.13;;;9.07;;
5801;SDS011;2927;49.366;8.530;2022-07-23T05:04:24;10.30;;;7.43;;
5801;SDS011;2927;49.366;8.530;2022-07-23T05:06:49;12.60;;;7.30;;
5801;SDS011;2927;49.366;8.530;2022-07-23T05:09:15;13.03;;;8.70;;
5801;SDS011;2927;49.366;8.530;2022-07-23T05:11:40;10.83;;;8.03;;
5801;SDS011;2927;49.366;8.530;2022-07-23T05:14:06;11.90;;;8.90;;
5801;SDS011;2927;49.366;8.530;2022-07-23T05:16:31;11.70;;;7.63;;
5801;SDS011;2927;49.366;8.530;2022-07-23T05:18:57;10.27;;;7.23;;
5801;SDS011;2927;49.366;8.530;2022-07-23T05:21:23;17.13;;;7.27;;
5801;SDS011;2927;49.366;8.530;2022-07-23T05:23:48;9.50;;;7.10;;
5801;SDS011;2927;49.366;8.530;2022-07-23T05:26:13;10.70;;;8.37;;
5801;SDS011;2927;49.366;8.530;2022-07-23T05:28:39;10.90;;;7.23;;
5801;SDS011;2927;49.366;8.530;2022-07-23T05:31:04;10.70;;;8.20;;
5801;SDS011;2927;49.366;8.530;2022-07-23T05:33:31;12.83;;;8.87;;
5801;SDS011;2927;49.366;8.530;2022-07-23T05:36:00;11.23;;;7.73;;
5801;SDS011;2927;49.366;8.530;2022-07-23T05:38:27;13.77;;;9.30;;
5801;SDS011;2927;49.366;8.530;2022-07-23T05:40:53;13.90;;;9.80;;
5801;SDS011;2927;49.366;8.530;2022-07-23T05:43:19;11.67;;;8.77;;
5801;SDS011;2927;49.366;8.530;2022-07-23T05:45:44;17.97;;;9.87;;
5801;SDS011;2927;49.366;8.530;2022-07-23T05:48:10;17.17;;;10.13;;
5801;SDS011;2927;49.366;8.530;2022-07-23T05:50:35;17.27;;;10.37;;
5801;SDS011;2927;49.366;8.530;2022-07-23T05:53:01;16.57;;;9.77;;
5801;SDS011;2927;49.366;8.530;2022-07-23T05:55:26;15.37;;;10.57;;
5801;SDS011;2927;49.366;8.530;2022-07-23T05:57:54;17.10;;;11.17;;
5801;SDS011;2927;49.366;8.530;2022-07-23T06:00:20;17.97;;;11.33;;
5801;SDS011;2927;49.366;8.530;2022-07-23T06:02:46;15.63;;;10.53;;
5801;SDS011;2927;49.366;8.530;2022-07-23T06:05:11;17.07;;;11.47;;
5801;SDS011;2927;49.366;8.530;2022-07-23T06:07:37;29.57;;;12.50;;
5801;SDS011;2927;49.366;8.530;2022-07-23T06:10:03;18.23;;;10.83;;
5801;SDS011;2927;49.366;8.530;2022-07-23T06:12:29;20.20;;;11.20;;
5801;SDS011;2927;49.366;8.530;2022-07-23T06:14:55;16.00;;;11.27;;
5801;SDS011;2927;49.366;8.530;2022-07-23T06:17:20;15.00;;;10.20;;
5801;SDS011;2927;49.366;8.530;2022-07-23T06:19:46;17.73;;;10.80;;
5801;SDS011;2927;49.366;8.530;2022-07-23T06:22:11;15.57;;;10.20;;
5801;SDS011;2927;49.366;8.530;2022-07-23T06:24:37;17.63;;;11.30;;
5801;SDS011;2927;49.366;8.530;2022-07-23T06:27:03;15.80;;;11.37;;
5801;SDS011;2927;49.366;8.530;2022-07-23T06:29:29;24.30;;;11.60;;
5801;SDS011;2927;49.366;8.530;2022-07-23T06:31:54;15.50;;;10.50;;
5801;SDS011;2927;49.366;8.530;2022-07-23T06:34:20;15.70;;;10.20;;
5801;SDS011;2927;49.366;8.530;2022-07-23T06:36:45;15.93;;;9.67;;
5801;SDS011;2927;49.366;8.530;2022-07-23T06:39:11;17.87;;;10.90;;
5801;SDS011;2927;49.366;8.530;2022-07-23T06:41:36;12.70;;;9.23;;
5801;SDS011;2927;49.366;8.530;2022-07-23T06:44:02;15.17;;;9.60;;
5801;SDS011;2927;49.366;8.530;2022-07-23T06:46:27;18.03;;;10.10;;
5801;SDS011;2927;49.366;8.530;2022-07-23T06:48:53;15.10;;;10.93;;
5801;SDS011;2927;49.366;8.530;2022-07-23T06:51:18;13.90;;;10.20;;
5801;SDS011;2927;49.366;8.530;2022-07-23T06:53:44;17.80;;;10.53;;
5801;SDS011;2927;49.366;8.530;2022-07-23T06:56:10;14.10;;;10.07;;
5801;SDS011;2927;49.366;8.530;2022-07-23T06:58:35;17.97;;;11.00;;
5801;SDS011;2927;49.366;8.530;2022-07-23T07:01:01;17.67;;;10.87;;
5801;SDS011;2927;49.366;8.530;2022-07-23T07:03:26;14.73;;;10.80;;
5801;SDS011;2927;49.366;8.530;2022-07-23T07:05:52;15.87;;;10.57;;
5801;SDS011;2927;49.366;8.530;2022-07-23T07:08:18;18.67;;;10.50;;
5801;SDS011;2927;49.366;8.530;2022-07-23T07:10:44;20.57;;;12.00;;
5801;SDS011;2927;49.366;8.530;2022-07-23T07:13:09;20.70;;;12.20;;
5801;SDS011;2927;49.366;8.530;2022-07-23T07:15:35;24.03;;;11.90;;
5801;SDS011;2927;49.366;8.530;2022-07-23T07:18:00;16.07;;;10.57;;
5801;SDS011;2927;49.366;8.530;2022-07-23T07:20:26;14.13;;;11.10;;
5801;SDS011;2927;49.366;8.530;2022-07-23T07:22:51;16.27;;;9.97;;
5801;SDS011;2927;49.366;8.530;2022-07-23T07:25:17;16.53;;;11.20;;
5801;SDS011;2927;49.366;8.530;2022-07-23T07:27:43;14.17;;;9.60;;
5801;SDS011;2927;49.366;8.530;2022-07-23T07:30:09;18.07;;;10.80;;
5801;SDS011;2927;49.366;8.530;2022-07-23T07:32:36;14.40;;;9.73;;
5801;SDS011;2927;49.366;8.530;2022-07-23T07:35:02;14.20;;;9.13;;
5801;SDS011;2927;49.366;8.530;2022-07-23T07:37:29;13.67;;;9.73;;
5801;SDS011;2927;49.366;8.530;2022-07-23T07:39:54;14.40;;;9.77;;
5801;SDS011;2927;49.366;8.530;2022-07-23T07:42:20;13.43;;;9.30;;
5801;SDS011;2927;49.366;8.530;2022-07-23T07:44:46;19.87;;;9.37;;
5801;SDS011;2927;49.366;8.530;2022-07-23T07:47:11;11.73;;;8.67;;
5801;SDS011;2927;49.366;8.530;2022-07-23T07:49:38;16.30;;;9.70;;
5801;SDS011;2927;49.366;8.530;2022-07-23T07:52:04;16.60;;;10.17;;
5801;SDS011;2927;49.366;8.530;2022-07-23T07:54:31;19.50;;;11.37;;
5801;SDS011;2927;49.366;8.530;2022-07-23T07:56:57;15.40;;;10.03;;
5801;SDS011;2927;49.366;8.530;2022-07-23T07:59:22;14.50;;;9.00;;
5801;SDS011;2927;49.366;8.530;2022-07-23T08:01:48;12.70;;;10.00;;
5801;SDS011;2927;49.366;8.530;2022-07-23T08:04:13;14.53;;;9.23;;
5801;SDS011;2927;49.366;8.530;2022-07-23T08:06:39;11.07;;;8.53;;
5801;SDS011;2927;49.366;8.530;2022-07-23T08:09:05;12.27;;;9.07;;
5801;SDS011;2927;49.366;8.530;2022-07-23T08:11:30;10.90;;;8.63;;
5801;SDS011;2927;49.366;8.530;2022-07-23T08:13:56;15.60;;;8.40;;
5801;SDS011;2927;49.366;8.530;2022-07-23T08:16:21;18.03;;;8.20;;
5801;SDS011;2927;49.366;8.530;2022-07-23T08:18:47;12.00;;;8.73;;
5801;SDS011;2927;49.366;8.530;2022-07-23T08:21:13;10.40;;;8.37;;
5801;SDS011;2927;49.366;8.530;2022-07-23T08:23:38;10.17;;;8.00;;
5801;SDS011;2927;49.366;8.530;2022-07-23T08:26:04;11.13;;;8.40;;
5801;SDS011;2927;49.366;8.530;2022-07-23T08:28:29;11.57;;;8.37;;
5801;SDS011;2927;49.366;8.530;2022-07-23T08:30:58;15.70;;;9.50;;
5801;SDS011;2927;49.366;8.530;2022-07-23T08:33:24;12.40;;;8.63;;
5801;SDS011;2927;49.366;8.530;2022-07-23T08:35:50;14.37;;;9.70;;
5801;SDS011;2927;49.366;8.530;2022-07-23T08:38:18;13.47;;;10.00;;
5801;SDS011;2927;49.366;8.530;2022-07-23T08:40:45;12.63;;;9.80;;
5801;SDS011;2927;49.366;8.530;2022-07-23T08:43:13;18.20;;;10.43;;
5801;SDS011;2927;49.366;8.530;2022-07-23T08:45:44;17.20;;;11.37;;
5801;SDS011;2927;49.366;8.530;2022-07-23T08:48:12;11.70;;;8.90;;
5801;SDS011;2927;49.366;8.530;2022-07-23T08:50:41;16.03;;;10.47;;
5801;SDS011;2927;49.366;8.530;2022-07-23T08:53:08;12.13;;;8.90;;
5801;SDS011;2927;49.366;8.530;2022-07-23T08:55:35;11.90;;;9.40;;
5801;SDS011;2927;49.366;8.530;2022-07-23T08:58:00;10.90;;;9.30;;
5801;SDS011;2927;49.366;8.530;2022-07-23T09:00:27;9.50;;;8.50;;
5801;SDS011;2927;49.366;8.530;2022-07-23T09:02:53;11.97;;;9.37;;
5801;SDS011;2927;49.366;8.530;2022-07-23T09:05:19;13.07;;;11.07;;
5801;SDS011;2927;49.366;8.530;2022-07-23T09:13:36;9.70;;;8.40;;
5801;SDS011;2927;49.366;8.530;2022-07-23T09:16:11;10.10;;;9.03;;
5801;SDS011;2927;49.366;8.530;2022-07-23T09:18:45;12.90;;;8.33;;
5801;SDS011;2927;49.366;8.530;2022-07-23T09:21:20;10.27;;;9.20;;
5801;SDS011;2927;49.366;8.530;2022-07-23T09:26:27;13.00;;;9.13;;
5801;SDS011;2927;49.366;8.530;2022-07-23T09:34:10;14.27;;;9.60;;
5801;SDS011;2927;49.366;8.530;2022-07-23T09:36:38;11.60;;;10.43;;
5801;SDS011;2927;49.366;8.530;2022-07-23T09:39:04;11.90;;;9.87;;
5801;SDS011;2927;49.366;8.530;2022-07-23T09:41:34;12.23;;;9.33;;
5801;SDS011;2927;49.366;8.530;2022-07-23T09:44:08;12.17;;;9.67;;
5801;SDS011;2927;49.366;8.530;2022-07-23T09:46:42;10.27;;;9.03;;
5801;SDS011;2927;49.366;8.530;2022-07-23T09:49:10;11.93;;;9.10;;
5801;SDS011;2927;49.366;8.530;2022-07-23T09:51:47;11.10;;;9.57;;
5801;SDS011;2927;49.366;8.530;2022-07-23T09:54:25;13.93;;;10.60;;
5801;SDS011;2927;49.366;8.530;2022-07-23T09:57:03;10.40;;;9.20;;
5801;SDS011;2927;49.366;8.530;2022-07-23T09:59:36;9.87;;;8.87;;
5801;SDS011;2927;49.366;8.530;2022-07-23T10:02:04;10.20;;;9.20;;
5801;SDS011;2927;49.366;8.530;2022-07-23T10:04:31;12.13;;;9.80;;
5801;SDS011;2927;49.366;8.530;2022-07-23T10:06:58;9.67;;;8.23;;
5801;SDS011;2927;49.366;8.530;2022-07-23T10:09:29;10.60;;;8.90;;
5801;SDS011;2927;49.366;8.530;2022-07-23T10:12:00;11.17;;;9.53;;
5801;SDS011;2927;49.366;8.530;2022-07-23T10:14:36;13.40;;;9.90;;
5801;SDS011;2927;49.366;8.530;2022-07-23T10:17:06;12.43;;;10.10;;
5801;SDS011;2927;49.366;8.530;2022-07-23T10:19:31;9.70;;;8.40;;
5801;SDS011;2927;49.366;8.530;2022-07-23T10:22:01;12.77;;;9.67;;
5801;SDS011;2927;49.366;8.530;2022-07-23T10:30:04;11.77;;;9.57;;
5801;SDS011;2927;49.366;8.530;2022-07-23T10:32:44;16.93;;;10.27;;
5801;SDS011;2927;49.366;8.530;2022-07-23T10:35:31;11.53;;;9.27;;
5801;SDS011;2927;49.366;8.530;2022-07-23T10:38:37;14.97;;;10.80;;
5801;SDS011;2927;49.366;8.530;2022-07-23T10:41:19;12.57;;;9.40;;
5801;SDS011;2927;49.366;8.530;2022-07-23T10:44:06;13.63;;;9.03;;
5801;SDS011;2927;49.366;8.530;2022-07-23T10:46:46;19.17;;;10.97;;
5801;SDS011;2927;49.366;8.530;2022-07-23T10:49:37;12.97;;;10.13;;
5801;SDS011;2927;49.366;8.530;2022-07-23T10:54:42;11.50;;;8.17;;
5801;SDS011;2927;49.366;8.530;2022-07-23T10:57:09;11.90;;;10.03;;
5801;SDS011;2927;49.366;8.530;2022-07-23T11:02:53;13.50;;;9.63;;
5801;SDS011;2927;49.366;8.530;2022-07-23T11:05:22;9.73;;;8.83;;
5801;SDS011;2927;49.366;8.530;2022-07-23T11:10:37;12.80;;;10.10;;
5801;SDS011;2927;49.366;8.530;2022-07-23T11:16:03;12.03;;;8.67;;
5801;SDS011;2927;49.366;8.530;2022-07-23T11:24:08;11.90;;;9.30;;
5801;SDS011;2927;49.366;8.530;2022-07-23T11:32:02;10.00;;;7.87;;
5801;SDS011;2927;49.366;8.530;2022-07-23T11:36:58;9.27;;;7.77;;
5801;SDS011;2927;49.366;8.530;2022-07-23T11:39:25;11.07;;;8.53;;
5801;SDS011;2927;49.366;8.530;2022-07-23T11:41:52;12.37;;;9.30;;
5801;SDS011;2927;49.366;8.530;2022-07-23T11:44:24;12.00;;;8.27;;
5801;SDS011;2927;49.366;8.530;2022-07-23T11:46:55;9.43;;;7.47;;
5801;SDS011;2927;49.366;8.530;2022-07-23T11:49:22;9.20;;;7.63;;
5801;SDS011;2927;49.366;8.530;2022-07-23T11:52:02;9.70;;;8.70;;
5801;SDS011;2927;49.366;8.530;2022-07-23T11:54:35;12.90;;;7.50;;
5801;SDS011;2927;49.366;8.530;2022-07-23T11:57:11;8.43;;;6.77;;
5801;SDS011;2927;49.366;8.530;2022-07-23T11:59:36;11.17;;;7.50;;
5801;SDS011;2927;49.366;8.530;2022-07-23T12:02:04;7.70;;;6.70;;
5801;SDS011;2927;49.366;8.530;2022-07-23T12:07:04;7.23;;;6.57;;
5801;SDS011;2927;49.366;8.530;2022-07-23T12:09:46;6.90;;;6.23;;
5801;SDS011;2927;49.366;8.530;2022-07-23T12:12:12;7.47;;;6.72;;
5801;SDS011;2927;49.366;8.530;2022-07-23T12:14:46;12.20;;;7.33;;
5801;SDS011;2927;49.366;8.530;2022-07-23T12:17:13;9.47;;;7.03;;
5801;SDS011;2927;49.366;8.530;2022-07-23T12:19:39;11.23;;;7.97;;
5801;SDS011;2927;49.366;8.530;2022-07-23T12:22:04;8.02;;;7.22;;
5801;SDS011;2927;49.366;8.530;2022-07-23T12:24:30;10.00;;;8.07;;
5801;SDS011;2927;49.366;8.530;2022-07-23T12:27:11;7.80;;;7.10;;
5801;SDS011;2927;49.366;8.530;2022-07-23T12:29:38;7.80;;;6.87;;
5801;SDS011;2927;49.366;8.530;2022-07-23T12:32:16;7.73;;;6.80;;
5801;SDS011;2927;49.366;8.530;2022-07-23T12:35:05;12.80;;;8.07;;
5801;SDS011;2927;49.366;8.530;2022-07-23T12:37:33;9.95;;;7.63;;
5801;SDS011;2927;49.366;8.530;2022-07-23T12:40:22;7.95;;;7.25;;
5801;SDS011;2927;49.366;8.530;2022-07-23T12:42:53;7.50;;;6.70;;
5801;SDS011;2927;49.366;8.530;2022-07-23T12:45:42;6.53;;;5.93;;
5801;SDS011;2927;49.366;8.530;2022-07-23T12:48:35;8.45;;;7.55;;
5801;SDS011;2927;49.366;8.530;2022-07-23T12:51:02;7.70;;;6.90;;
5801;SDS011;2927;49.366;8.530;2022-07-23T12:53:30;9.43;;;7.63;;
5801;SDS011;2927;49.366;8.530;2022-07-23T12:56:03;12.30;;;8.40;;
5801;SDS011;2927;49.366;8.530;2022-07-23T12:58:40;8.98;;;6.60;;
5801;SDS011;2927;49.366;8.530;2022-07-23T13:01:30;10.20;;;7.30;;
5801;SDS011;2927;49.366;8.530;2022-07-23T13:04:10;8.07;;;7.33;;
5801;SDS011;2927;49.366;8.530;2022-07-23T13:06:38;8.17;;;6.80;;
5801;SDS011;2927;49.366;8.530;2022-07-23T13:09:08;14.52;;;8.85;;
5801;SDS011;2927;49.366;8.530;2022-07-23T13:11:35;9.30;;;8.40;;
5801;SDS011;2927;49.366;8.530;2022-07-23T13:14:01;8.30;;;7.13;;
5801;SDS011;2927;49.366;8.530;2022-07-23T13:16:28;10.80;;;6.90;;
5801;SDS011;2927;49.366;8.530;2022-07-23T13:18:54;9.40;;;8.07;;
5801;SDS011;2927;49.366;8.530;2022-07-23T13:21:21;9.87;;;8.07;;
5801;SDS011;2927;49.366;8.530;2022-07-23T13:23:47;9.00;;;7.87;;
5801;SDS011;2927;49.366;8.530;2022-07-23T13:26:12;10.43;;;7.00;;
5801;SDS011;2927;49.366;8.530;2022-07-23T13:28:38;9.43;;;7.53;;
5801;SDS011;2927;49.366;8.530;2022-07-23T13:31:03;7.37;;;6.67;;
5801;SDS011;2927;49.366;8.530;2022-07-23T13:33:29;9.67;;;7.30;;
5801;SDS011;2927;49.366;8.530;2022-07-23T13:35:55;9.73;;;7.93;;
5801;SDS011;2927;49.366;8.530;2022-07-23T13:38:20;8.57;;;7.67;;
5801;SDS011;2927;49.366;8.530;2022-07-23T13:40:47;9.13;;;7.60;;
5801;SDS011;2927;49.366;8.530;2022-07-23T13:43:15;13.57;;;7.60;;
5801;SDS011;2927;49.366;8.530;2022-07-23T13:45:43;9.67;;;8.13;;
5801;SDS011;2927;49.366;8.530;2022-07-23T13:48:09;8.73;;;6.63;;
5801;SDS011;2927;49.366;8.530;2022-07-23T13:50:36;8.93;;;7.70;;
5801;SDS011;2927;49.366;8.530;2022-07-23T13:53:05;8.50;;;7.60;;
5801;SDS011;2927;49.366;8.530;2022-07-23T13:55:33;12.03;;;7.43;;
5801;SDS011;2927;49.366;8.530;2022-07-23T13:58:06;9.33;;;7.20;;
5801;SDS011;2927;49.366;8.530;2022-07-23T14:00:33;8.43;;;7.30;;
5801;SDS011;2927;49.366;8.530;2022-07-23T14:03:00;8.83;;;7.00;;
5801;SDS011;2927;49.366;8.530;2022-07-23T14:05:26;7.93;;;6.20;;
5801;SDS011;2927;49.366;8.530;2022-07-23T14:07:52;7.83;;;7.03;;
5801;SDS011;2927;49.366;8.530;2022-07-23T14:10:18;9.17;;;8.23;;
5801;SDS011;2927;49.366;8.530;2022-07-23T14:12:45;8.37;;;6.97;;
5801;SDS011;2927;49.366;8.530;2022-07-23T14:15:12;9.73;;;7.30;;
5801;SDS011;2927;49.366;8.530;2022-07-23T14:17:39;10.73;;;6.60;;
5801;SDS011;2927;49.366;8.530;2022-07-23T14:20:06;10.97;;;7.70;;
5801;SDS011;2927;49.366;8.530;2022-07-23T14:22:32;8.57;;;6.80;;
5801;SDS011;2927;49.366;8.530;2022-07-23T14:24:58;14.43;;;7.10;;
5801;SDS011;2927;49.366;8.530;2022-07-23T14:27:25;9.23;;;6.90;;
5801;SDS011;2927;49.366;8.530;2022-07-23T14:29:51;25.37;;;8.40;;
5801;SDS011;2927;49.366;8.530;2022-07-23T14:32:17;8.10;;;6.77;;
5801;SDS011;2927;49.366;8.530;2022-07-23T14:34:43;7.73;;;7.00;;
5801;SDS011;2927;49.366;8.530;2022-07-23T14:37:09;8.83;;;6.80;;
5801;SDS011;2927;49.366;8.530;2022-07-23T14:39:36;7.60;;;6.90;;
5801;SDS011;2927;49.366;8.530;2022-07-23T14:42:03;7.22;;;6.50;;
5801;SDS011;2927;49.366;8.530;2022-07-23T14:44:28;8.15;;;6.55;;
5801;SDS011;2927;49.366;8.530;2022-07-23T14:46:54;7.05;;;6.15;;
5801;SDS011;2927;49.366;8.530;2022-07-23T14:49:20;8.43;;;7.22;;
5801;SDS011;2927;49.366;8.530;2022-07-23T14:51:45;6.97;;;6.25;;
5801;SDS011;2927;49.366;8.530;2022-07-23T14:54:11;8.43;;;7.28;;
5801;SDS011;2927;49.366;8.530;2022-07-23T14:56:38;7.28;;;6.57;;
5801;SDS011;2927;49.366;8.530;2022-07-23T14:59:05;6.75;;;6.00;;
5801;SDS011;2927;49.366;8.530;2022-07-23T15:01:30;7.65;;;6.93;;
5801;SDS011;2927;49.366;8.530;2022-07-23T15:03:56;11.40;;;7.07;;
5801;SDS011;2927;49.366;8.530;2022-07-23T15:06:22;6.85;;;6.20;;
5801;SDS011;2927;49.366;8.530;2022-07-23T15:08:47;7.00;;;6.47;;
5801;SDS011;2927;49.366;8.530;2022-07-23T15:11:13;6.63;;;6.03;;
5801;SDS011;2927;49.366;8.530;2022-07-23T15:13:38;8.48;;;7.38;;
5801;SDS011;2927;49.366;8.530;2022-07-23T15:16:04;9.02;;;6.72;;
5801;SDS011;2927;49.366;8.530;2022-07-23T15:18:30;6.65;;;6.15;;
5801;SDS011;2927;49.366;8.530;2022-07-23T15:20:56;6.80;;;6.10;;
5801;SDS011;2927;49.366;8.530;2022-07-23T15:23:21;6.22;;;5.72;;
5801;SDS011;2927;49.366;8.530;2022-07-23T15:25:47;8.30;;;6.30;;
5801;SDS011;2927;49.366;8.530;2022-07-23T15:28:12;8.40;;;6.13;;
5801;SDS011;2927;49.366;8.530;2022-07-23T15:30:38;7.15;;;6.45;;
5801;SDS011;2927;49.366;8.530;2022-07-23T15:33:04;6.00;;;5.45;;
5801;SDS011;2927;49.366;8.530;2022-07-23T15:35:30;5.97;;;5.47;;
5801;SDS011;2927;49.366;8.530;2022-07-23T15:37:56;6.32;;;5.78;;
5801;SDS011;2927;49.366;8.530;2022-07-23T15:40:22;6.47;;;5.85;;
5801;SDS011;2927;49.366;8.530;2022-07-23T15:42:47;7.25;;;6.57;;
5801;SDS011;2927;49.366;8.530;2022-07-23T15:45:13;6.22;;;5.63;;
5801;SDS011;2927;49.366;8.530;2022-07-23T15:47:39;7.22;;;6.45;;
5801;SDS011;2927;49.366;8.530;2022-07-23T15:50:07;6.78;;;6.18;;
5801;SDS011;2927;49.366;8.530;2022-07-23T15:52:34;6.78;;;6.18;;